Piedmont, OH (43983)

5:03 AM EST on January 31, 2015 (GMT -0500)
Morristown, Ohio | Change Station
CLOSE
Current Station
Personal Weather Station
Location: Belmont, OH
Elevation: 1283 ft
Nearby Weather Stations
Active Advisory: Winter Storm Watch

Elev 1283 ft 40.08 °N, 81.06 °W | Updated 1 minute ago

Partly Cloudy
Partly Cloudy
8.2 °F
Feels Like 1 °F
N
3.7
Wind Variable Wind from NW

Today
High -- | Low -- °F
--% Chance of Precip.
Yesterday
High -- | Low -- °F
Precip. -- in
7:34 AM 5:42 PM
Waxing Gibbous, 88% visible
Pressure 30.44 in
Visibility 10.0 miles
Clouds Clear
Windchill 1 °F
Dew Point 5 °F
Humidity 86%
Rainfall 0.00 in
Snow Depth Not available.
UV 0 out of 12
Pollen .10 out of 12
Air Quality Not available.
Flu Activity Not available.
METAR KPHD 310953Z AUTO 00000KT 10SM CLR M17/M19 A3038 RMK AO2 SLP307 T11721194

More Conditions Fewer Conditions

Pressure 30.44 in
Visibility 10.0 miles
Clouds Clear
Windchill 1 °F
Dew Point 5 °F
Humidity 86%
Rainfall 0.00 in
Snow Depth Not available.
UV 0 out of 12
Pollen .10 out of 12
Air Quality Not available.
Flu Activity Not available.
METAR KPHD 310953Z AUTO 00000KT 10SM CLR M17/M19 A3038 RMK AO2 SLP307 T11721194

More Conditions Fewer Conditions

10-Day Weather Forecast

Almanac

Astronomy

Jan. 31, 2015 Rise Set
Actual Time
Civil Twilight
Nautical Twilight
Astronomical Twilight
Moon
Length of Visible Light
Length of Day
Tomorrow will be .
, % of the Moon is Illuminated

Today's Extremes

State Highs State Lows

Community

WunderPhotos

Upload Photos

1,792,021 photos uploaded!

WunderBlogs® & News

Nearby

Air Quality

  Air Quality AQ Index Pollutant
Not available.

Snow Depth

Station Depth Elevation

Earthquake Activity

City Distance Mag. Time & Date
Minimum magnitude displayed is 2.5.

Coastal Water Temperatures

Place Temperature

Nearby Weather Stations